createdAt,value
2019-05-29T00:01:42.957Z,4.90
2019-05-29T00:04:14.506Z,4.45
2019-05-29T00:06:45.671Z,4.78
2019-05-29T00:09:18.477Z,4.37
2019-05-29T00:11:49.592Z,4.53
2019-05-29T00:14:27.140Z,4.50
2019-05-29T00:16:53.447Z,4.60
2019-05-29T00:19:24.569Z,4.60
2019-05-29T00:21:55.680Z,4.35
2019-05-29T00:24:29.155Z,4.20
2019-05-29T00:27:01.055Z,3.57
2019-05-29T00:29:32.120Z,4.13
2019-05-29T00:32:03.179Z,3.85
2019-05-29T00:34:35.865Z,3.85
2019-05-29T00:37:08.392Z,3.77
2019-05-29T00:39:41.251Z,3.93
2019-05-29T00:42:13.249Z,4.03
2019-05-29T00:44:46.555Z,3.90
2019-05-29T00:47:19.107Z,3.60
2019-05-29T00:49:50.219Z,3.83
2019-05-29T00:52:21.274Z,3.73
2019-05-29T00:54:53.932Z,3.90
2019-05-29T00:57:24.961Z,3.58
2019-05-29T00:59:56.013Z,3.70
2019-05-29T01:02:27.068Z,3.70
2019-05-29T01:04:58.150Z,3.40
2019-05-29T01:07:29.232Z,3.83
2019-05-29T01:10:01.090Z,3.83
2019-05-29T01:12:32.127Z,4.07
2019-05-29T01:15:03.225Z,4.90
2019-05-29T01:17:34.251Z,4.70
2019-05-29T01:20:07.131Z,7.33
2019-05-29T01:22:38.175Z,7.70
2019-05-29T01:25:09.287Z,5.65
2019-05-29T01:27:41.961Z,4.47
2019-05-29T01:30:13.193Z,4.13
2019-05-29T01:32:44.319Z,3.87
2019-05-29T01:35:15.748Z,3.47
2019-05-29T01:37:46.815Z,3.70
2019-05-29T01:40:22.172Z,3.40
2019-05-29T01:42:50.691Z,4.30
2019-05-29T01:45:21.876Z,6.00
2019-05-29T01:47:55.366Z,7.47
2019-05-29T01:50:26.443Z,6.10
2019-05-29T01:52:57.506Z,4.10
2019-05-29T01:55:28.616Z,3.43
2019-05-29T01:58:01.185Z,2.77
2019-05-29T02:00:32.247Z,2.95
2019-05-29T02:03:03.336Z,3.10
2019-05-29T02:05:34.397Z,3.50
2019-05-29T02:08:05.456Z,3.40
2019-05-29T02:10:36.720Z,3.50
2019-05-29T02:13:07.792Z,3.27
2019-05-29T02:15:38.844Z,3.17
2019-05-29T02:18:09.922Z,3.37
2019-05-29T02:20:40.996Z,3.10
2019-05-29T02:23:12.145Z,2.90
2019-05-29T02:25:43.318Z,3.13
2019-05-29T02:28:16.265Z,3.10
2019-05-29T02:30:47.445Z,4.23
2019-05-29T02:33:21.722Z,4.40
2019-05-29T02:35:53.041Z,3.97
2019-05-29T02:38:24.967Z,2.90
2019-05-29T02:40:56.850Z,3.03
2019-05-29T02:43:29.742Z,3.53
2019-05-29T02:46:01.432Z,3.27
2019-05-29T02:48:32.522Z,2.80
2019-05-29T02:51:03.636Z,2.87
2019-05-29T02:53:34.723Z,3.00
2019-05-29T02:56:08.131Z,3.20
2019-05-29T02:58:39.156Z,3.43
2019-05-29T03:01:10.356Z,3.07
2019-05-29T03:03:41.441Z,3.40
2019-05-29T03:06:13.168Z,3.13
2019-05-29T03:08:44.210Z,3.07
2019-05-29T03:11:15.319Z,3.37
2019-05-29T03:13:46.774Z,3.72
2019-05-29T03:16:19.648Z,3.80
2019-05-29T03:18:50.709Z,3.17
2019-05-29T03:21:21.981Z,3.02
2019-05-29T03:23:53.042Z,3.30
2019-05-29T03:26:26.551Z,2.80
2019-05-29T03:28:57.837Z,3.30
2019-05-29T03:31:36.870Z,2.70
2019-05-29T03:34:01.650Z,2.90
2019-05-29T03:36:39.633Z,2.90
2019-05-29T03:39:06.888Z,2.45
2019-05-29T03:41:38.957Z,2.70
2019-05-29T03:44:11.862Z,2.60
2019-05-29T03:46:46.015Z,3.58
2019-05-29T03:49:15.769Z,2.67
2019-05-29T03:51:46.872Z,2.75
2019-05-29T03:54:17.914Z,2.90
2019-05-29T03:56:49.851Z,2.55
2019-05-29T03:59:22.566Z,2.52
2019-05-29T04:01:53.676Z,2.75
2019-05-29T04:04:24.818Z,3.02
2019-05-29T04:06:55.907Z,2.80
2019-05-29T04:09:27.223Z,4.33
2019-05-29T04:11:58.425Z,5.03
2019-05-29T04:14:30.232Z,3.35
2019-05-29T04:17:04.689Z,2.80
2019-05-29T04:19:36.888Z,2.80
2019-05-29T04:22:11.949Z,2.90
2019-05-29T04:24:43.098Z,2.95
2019-05-29T04:27:16.643Z,3.83
2019-05-29T04:29:49.488Z,3.35
2019-05-29T04:32:20.637Z,3.70
2019-05-29T04:34:53.215Z,3.60
2019-05-29T04:37:25.570Z,3.12
2019-05-29T04:39:56.615Z,2.83
2019-05-29T04:42:31.984Z,2.80
2019-05-29T04:45:02.749Z,2.98
2019-05-29T04:47:35.098Z,2.60
2019-05-29T04:50:09.439Z,2.60
2019-05-29T04:52:40.666Z,2.90
2019-05-29T04:55:11.811Z,2.33
2019-05-29T04:57:45.315Z,2.22
2019-05-29T05:00:18.120Z,3.20
2019-05-29T05:02:50.867Z,3.00
2019-05-29T05:05:23.535Z,3.50
2019-05-29T05:07:56.234Z,2.42
2019-05-29T05:10:40.758Z,2.17
2019-05-29T05:13:13.139Z,3.20
2019-05-29T05:15:46.913Z,2.55
2019-05-29T05:18:18.082Z,2.50
2019-05-29T05:20:52.363Z,2.25
2019-05-29T05:23:23.472Z,2.15
2019-05-29T05:25:56.098Z,2.25
2019-05-29T05:28:28.160Z,2.22
2019-05-29T05:31:00.095Z,2.55
2019-05-29T05:33:32.360Z,2.27
2019-05-29T05:36:03.521Z,1.87
2019-05-29T05:38:34.691Z,2.20
2019-05-29T05:41:07.346Z,2.08
2019-05-29T05:43:41.402Z,1.90
2019-05-29T05:46:12.599Z,2.33
2019-05-29T05:48:44.484Z,2.77
2019-05-29T05:51:17.060Z,2.40
2019-05-29T05:53:48.165Z,2.00
2019-05-29T05:56:19.266Z,2.02
2019-05-29T05:58:53.451Z,1.70
2019-05-29T06:01:24.502Z,1.92
2019-05-29T06:03:55.606Z,1.90
2019-05-29T06:06:26.691Z,1.70
2019-05-29T06:08:57.757Z,2.00
2019-05-29T06:11:28.814Z,1.87
2019-05-29T06:13:59.912Z,1.90
2019-05-29T06:16:32.683Z,1.82
2019-05-29T06:19:03.764Z,1.87
2019-05-29T06:21:34.801Z,2.20
2019-05-29T06:24:05.902Z,2.33
2019-05-29T06:26:36.987Z,2.10
2019-05-29T06:29:08.873Z,1.70
2019-05-29T06:31:41.458Z,1.82
2019-05-29T06:34:12.528Z,2.30
2019-05-29T06:36:44.024Z,1.70
2019-05-29T06:39:15.175Z,1.90
2019-05-29T06:41:46.197Z,2.20
2019-05-29T06:44:20.905Z,2.22
2019-05-29T06:46:53.553Z,2.25
2019-05-29T06:49:24.623Z,1.80
2019-05-29T06:51:55.783Z,2.00
2019-05-29T06:54:26.848Z,1.75
2019-05-29T06:56:57.907Z,2.25
2019-05-29T06:59:29.767Z,1.82
2019-05-29T07:02:00.862Z,1.67
2019-05-29T07:04:33.499Z,1.72
2019-05-29T07:07:04.554Z,1.90
2019-05-29T07:09:36.805Z,1.85
2019-05-29T07:12:07.938Z,1.70
2019-05-29T07:14:40.040Z,1.80
2019-05-29T07:17:11.434Z,1.67
2019-05-29T07:19:53.969Z,2.40
2019-05-29T07:22:15.250Z,2.45
2019-05-29T07:24:48.576Z,2.35
2019-05-29T07:27:19.591Z,2.10
2019-05-29T07:29:51.464Z,2.27
2019-05-29T07:32:23.307Z,2.00
2019-05-29T07:35:03.049Z,1.98
2019-05-29T07:37:27.220Z,1.87
2019-05-29T07:39:58.348Z,1.98
2019-05-29T07:42:29.365Z,1.75
2019-05-29T07:45:00.487Z,1.98
2019-05-29T07:47:31.525Z,1.62
2019-05-29T07:50:04.209Z,1.70
2019-05-29T07:52:36.086Z,1.95
2019-05-29T07:55:08.035Z,1.82
2019-05-29T07:57:39.086Z,1.80
2019-05-29T08:00:12.586Z,1.95
2019-05-29T08:02:43.636Z,2.20
2019-05-29T08:05:16.295Z,2.00
2019-05-29T08:07:49.689Z,2.20
2019-05-29T08:10:21.035Z,2.05
2019-05-29T08:12:55.594Z,1.62
2019-05-29T08:15:24.995Z,2.20
2019-05-29T08:17:56.035Z,1.70
2019-05-29T08:20:28.553Z,1.82
2019-05-29T08:22:59.652Z,1.98
2019-05-29T08:25:30.785Z,2.42
2019-05-29T08:28:01.831Z,1.85
2019-05-29T08:30:35.371Z,1.70
2019-05-29T08:33:10.483Z,2.17
2019-05-29T08:35:43.258Z,2.30
2019-05-29T08:38:15.898Z,1.80
2019-05-29T08:40:47.401Z,2.08
2019-05-29T08:43:18.595Z,2.20
2019-05-29T08:45:52.524Z,2.10
2019-05-29T08:48:24.731Z,2.00
2019-05-29T08:50:55.867Z,2.02
2019-05-29T08:53:26.909Z,1.77
2019-05-29T08:55:59.410Z,1.77
2019-05-29T08:58:30.476Z,2.58
2019-05-29T09:01:02.359Z,1.90
2019-05-29T09:03:33.392Z,1.80
2019-05-29T09:06:08.863Z,1.60
2019-05-29T09:08:37.339Z,1.80
2019-05-29T09:11:08.450Z,2.45
2019-05-29T09:13:40.963Z,2.30
2019-05-29T09:16:12.807Z,2.15
2019-05-29T09:18:45.304Z,1.80
2019-05-29T09:21:19.073Z,1.90
2019-05-29T09:23:50.294Z,1.82
2019-05-29T09:26:24.647Z,1.70
2019-05-29T09:28:54.215Z,1.80
2019-05-29T09:31:25.416Z,1.82
2019-05-29T09:33:58.106Z,1.75
2019-05-29T09:36:29.179Z,1.87
2019-05-29T09:39:00.196Z,1.90
2019-05-29T09:41:31.318Z,1.75
2019-05-29T09:44:02.545Z,1.65
2019-05-29T09:46:33.865Z,2.30
2019-05-29T09:49:05.187Z,1.70
2019-05-29T09:51:36.324Z,1.80
2019-05-29T09:54:07.392Z,3.55
2019-05-29T09:56:38.485Z,2.22
2019-05-29T09:59:09.523Z,3.27
2019-05-29T10:01:41.399Z,12.18
2019-05-29T10:04:12.450Z,4.03
2019-05-29T10:06:43.593Z,3.00
2019-05-29T10:09:14.697Z,4.20
2019-05-29T10:11:48.825Z,1.77
2019-05-29T10:14:19.865Z,3.95
2019-05-29T10:16:50.997Z,3.77
2019-05-29T10:19:23.725Z,4.15
2019-05-29T10:21:54.879Z,3.80
2019-05-29T10:24:27.093Z,3.90
2019-05-29T10:26:59.052Z,2.20
2019-05-29T10:29:31.001Z,5.10
2019-05-29T10:32:04.689Z,2.17
2019-05-29T10:34:38.930Z,5.92
2019-05-29T10:37:10.070Z,3.45
2019-05-29T10:39:42.883Z,4.70
2019-05-29T10:42:15.417Z,5.60
2019-05-29T10:44:49.068Z,2.87
2019-05-29T10:47:21.841Z,2.20
2019-05-29T10:49:53.811Z,2.10
2019-05-29T10:52:28.134Z,1.70
2019-05-29T10:54:59.171Z,1.72
2019-05-29T10:57:30.519Z,1.57
2019-05-29T11:00:04.628Z,2.30
2019-05-29T11:02:36.536Z,2.50
2019-05-29T11:05:07.724Z,2.17
2019-05-29T11:07:38.952Z,4.33
2019-05-29T11:10:13.607Z,1.95
2019-05-29T11:12:44.279Z,2.15
2019-05-29T11:15:21.544Z,2.33
2019-05-29T11:17:50.998Z,2.35
2019-05-29T11:20:22.947Z,2.95
2019-05-29T11:22:55.682Z,2.17
2019-05-29T11:25:27.897Z,2.02
2019-05-29T11:27:59.010Z,1.85
2019-05-29T11:30:30.096Z,1.98
2019-05-29T11:33:02.015Z,2.20
2019-05-29T11:35:33.137Z,1.67
2019-05-29T11:38:05.769Z,1.80
2019-05-29T11:40:37.014Z,2.40
2019-05-29T11:43:08.231Z,1.50
2019-05-29T11:45:39.347Z,2.30
2019-05-29T11:48:11.312Z,2.58
2019-05-29T11:50:43.375Z,2.85
2019-05-29T11:53:14.422Z,2.50
2019-05-29T11:55:45.453Z,5.20
2019-05-29T11:58:30.578Z,1.80
2019-05-29T12:00:49.289Z,2.33
2019-05-29T12:03:22.792Z,1.80
2019-05-29T12:05:55.475Z,2.00
2019-05-29T12:08:26.664Z,1.60
2019-05-29T12:10:57.702Z,1.77
2019-05-29T12:13:28.775Z,1.67
2019-05-29T12:16:01.822Z,1.70
2019-05-29T12:18:33.803Z,1.90
2019-05-29T12:21:04.835Z,1.95
2019-05-29T12:23:35.980Z,2.00
2019-05-29T12:26:21.986Z,2.62
2019-05-29T12:28:39.768Z,2.50
2019-05-29T12:31:10.846Z,2.25
2019-05-29T12:33:42.732Z,1.80
2019-05-29T12:36:15.465Z,1.62
2019-05-29T12:38:46.516Z,1.50
2019-05-29T12:41:17.663Z,1.70
2019-05-29T12:43:50.371Z,1.82
2019-05-29T12:46:21.413Z,1.75
2019-05-29T12:48:53.465Z,2.75
2019-05-29T12:51:24.556Z,1.62
2019-05-29T12:53:57.897Z,2.10
2019-05-29T12:56:32.278Z,1.82
2019-05-29T12:59:04.681Z,1.95
2019-05-29T13:01:35.804Z,1.85
2019-05-29T13:04:07.814Z,1.72
2019-05-29T13:06:39.984Z,2.20
2019-05-29T13:09:11.027Z,3.25
2019-05-29T13:11:43.485Z,2.35
2019-05-29T13:14:16.059Z,1.90
2019-05-29T13:16:47.116Z,1.92
2019-05-29T13:19:19.822Z,2.30
2019-05-29T13:21:50.903Z,3.02
2019-05-29T13:24:21.947Z,2.25
2019-05-29T13:26:52.972Z,1.80
2019-05-29T13:29:24.115Z,1.67
2019-05-29T13:31:57.126Z,1.72
2019-05-29T13:34:28.004Z,1.80
2019-05-29T13:37:03.438Z,2.00
2019-05-29T13:39:32.141Z,2.00
2019-05-29T13:42:08.850Z,1.95
2019-05-29T13:44:35.979Z,1.80
2019-05-29T13:47:08.462Z,1.92
2019-05-29T13:49:41.260Z,2.12
2019-05-29T13:52:12.781Z,2.25
2019-05-29T13:54:44.021Z,1.95
2019-05-29T13:57:16.646Z,1.95
2019-05-29T13:59:47.716Z,1.87
2019-05-29T14:02:18.739Z,2.17
2019-05-29T14:04:52.754Z,2.05
2019-05-29T14:07:23.790Z,4.25
2019-05-29T14:09:54.872Z,9.93
2019-05-29T14:12:25.922Z,10.65
2019-05-29T14:14:56.986Z,7.50
2019-05-29T14:17:28.033Z,3.70
2019-05-29T14:20:00.510Z,8.25
2019-05-29T14:22:31.610Z,5.30
2019-05-29T14:25:03.232Z,2.67
2019-05-29T14:27:34.286Z,4.65
2019-05-29T14:30:10.931Z,5.05
2019-05-29T14:32:42.214Z,2.92
2019-05-29T14:35:14.293Z,1.77
2019-05-29T14:37:48.543Z,1.67
2019-05-29T14:40:20.769Z,1.80
2019-05-29T14:42:51.890Z,1.85
2019-05-29T14:45:26.062Z,2.15
2019-05-29T14:48:00.328Z,2.20
2019-05-29T14:50:34.621Z,2.17
2019-05-29T14:53:07.209Z,2.00
2019-05-29T14:55:39.296Z,2.10
2019-05-29T14:58:10.334Z,1.90
2019-05-29T15:00:41.505Z,2.30
2019-05-29T15:03:13.587Z,1.80
2019-05-29T15:05:45.585Z,1.80
2019-05-29T15:08:16.643Z,1.95
2019-05-29T15:10:47.724Z,2.15
2019-05-29T15:13:18.754Z,2.02
2019-05-29T15:15:49.858Z,1.90
2019-05-29T15:18:20.921Z,1.80
2019-05-29T15:20:54.322Z,1.75
2019-05-29T15:23:25.399Z,2.20
2019-05-29T15:25:56.479Z,1.70
2019-05-29T15:28:27.534Z,1.67
2019-05-29T15:31:00.165Z,1.52
2019-05-29T15:33:31.346Z,1.60
2019-05-29T15:36:03.500Z,1.87
2019-05-29T15:38:35.406Z,1.60
2019-05-29T15:41:06.681Z,1.60
2019-05-29T15:43:39.149Z,1.77
2019-05-29T15:46:11.776Z,1.70
2019-05-29T15:48:44.756Z,1.75
2019-05-29T15:51:17.166Z,1.55
2019-05-29T15:53:48.295Z,1.52
2019-05-29T15:56:27.430Z,1.87
2019-05-29T15:58:53.596Z,1.70
2019-05-29T16:01:24.676Z,2.02
2019-05-29T16:03:55.728Z,1.90
2019-05-29T16:06:30.614Z,1.70
2019-05-29T16:09:01.659Z,2.00
2019-05-29T16:11:34.294Z,1.90
2019-05-29T16:14:08.925Z,1.70
2019-05-29T16:16:40.027Z,1.50
2019-05-29T16:19:12.088Z,1.60
2019-05-29T16:21:44.084Z,1.40
2019-05-29T16:24:15.151Z,1.90
2019-05-29T16:26:46.241Z,1.92
2019-05-29T16:29:18.200Z,2.00
2019-05-29T16:31:50.106Z,1.82
2019-05-29T16:34:21.974Z,2.80
2019-05-29T16:36:54.870Z,2.55
2019-05-29T16:39:25.921Z,6.03
2019-05-29T16:41:57.059Z,1.75
2019-05-29T16:44:29.601Z,1.80
2019-05-29T16:47:02.374Z,1.70
2019-05-29T16:49:33.438Z,2.58
2019-05-29T16:52:04.771Z,2.47
2019-05-29T16:54:37.389Z,2.00
2019-05-29T16:57:08.448Z,2.20
2019-05-29T16:59:39.509Z,2.05
2019-05-29T17:02:13.542Z,1.98
2019-05-29T17:04:44.847Z,1.82
2019-05-29T17:07:18.363Z,2.22
2019-05-29T17:09:49.424Z,1.75
2019-05-29T17:12:20.578Z,1.75
2019-05-29T17:14:53.083Z,1.62
2019-05-29T17:17:25.701Z,1.77
2019-05-29T17:19:56.751Z,2.08
2019-05-29T17:22:28.750Z,1.98
2019-05-29T17:25:01.403Z,1.80
2019-05-29T17:27:32.470Z,1.60
2019-05-29T17:30:03.624Z,1.60
2019-05-29T17:32:35.493Z,1.77
2019-05-29T17:35:08.904Z,2.80
2019-05-29T17:37:41.944Z,4.33
2019-05-29T17:40:15.022Z,3.60
2019-05-29T17:42:46.096Z,3.80
2019-05-29T17:45:21.350Z,3.87
2019-05-29T17:47:50.836Z,2.40
2019-05-29T17:50:26.352Z,4.30
2019-05-29T17:52:57.119Z,3.02
2019-05-29T17:55:28.215Z,2.30
2019-05-29T17:58:02.476Z,4.17
2019-05-29T18:00:33.707Z,4.42
2019-05-29T18:03:05.403Z,4.05
2019-05-29T18:05:36.958Z,3.00
2019-05-29T18:08:10.696Z,2.37
2019-05-29T18:10:41.745Z,1.92
2019-05-29T18:13:12.876Z,2.02
2019-05-29T18:15:43.998Z,2.15
2019-05-29T18:18:15.196Z,2.17
2019-05-29T18:20:46.346Z,1.90
2019-05-29T18:23:19.977Z,2.02
2019-05-29T18:25:51.105Z,2.70
2019-05-29T18:28:22.307Z,2.80
2019-05-29T18:30:53.344Z,2.05
2019-05-29T18:33:24.926Z,2.47
2019-05-29T18:35:56.094Z,2.70
2019-05-29T18:38:28.732Z,2.27
2019-05-29T18:41:02.435Z,2.22
2019-05-29T18:43:33.547Z,2.70
2019-05-29T18:46:04.606Z,3.05
2019-05-29T18:48:35.717Z,2.58
2019-05-29T18:51:09.846Z,2.95
2019-05-29T18:53:42.552Z,3.17
2019-05-29T18:56:13.629Z,3.35
2019-05-29T18:58:44.768Z,3.65
2019-05-29T19:01:15.821Z,3.70
2019-05-29T19:03:46.920Z,3.10
2019-05-29T19:06:17.963Z,3.00
2019-05-29T19:08:50.717Z,3.40
2019-05-29T19:11:21.913Z,3.40
2019-05-29T19:13:53.030Z,3.72
2019-05-29T19:16:24.105Z,4.10
2019-05-29T19:18:55.233Z,4.00
2019-05-29T19:21:28.437Z,3.00
2019-05-29T19:24:00.434Z,4.03
2019-05-29T19:26:35.360Z,16.07
2019-05-29T19:29:04.600Z,18.37
2019-05-29T19:31:35.660Z,21.45
2019-05-29T19:34:06.810Z,15.30
2019-05-29T19:36:37.876Z,13.48
2019-05-29T19:39:11.042Z,9.13
2019-05-29T19:41:42.885Z,8.67
2019-05-29T19:44:13.981Z,8.47
2019-05-29T19:46:53.772Z,7.90
2019-05-29T19:49:17.872Z,8.43
2019-05-29T19:51:48.948Z,9.13
2019-05-29T19:54:23.113Z,9.87
2019-05-29T19:56:54.165Z,10.37
2019-05-29T19:59:27.943Z,9.27
2019-05-29T20:01:59.049Z,8.03
2019-05-29T20:04:30.600Z,7.47
2019-05-29T20:07:01.667Z,6.20
2019-05-29T20:09:33.599Z,6.43
2019-05-29T20:12:07.404Z,7.20
2019-05-29T20:14:38.501Z,8.17
2019-05-29T20:17:09.582Z,12.17
2019-05-29T20:19:41.054Z,17.17
2019-05-29T20:22:12.223Z,24.47
2019-05-29T20:24:45.696Z,27.47
2019-05-29T20:27:16.726Z,39.07
2019-05-29T20:29:49.241Z,35.23
2019-05-29T20:32:23.027Z,26.33
2019-05-29T20:34:54.101Z,22.43
2019-05-29T20:37:25.253Z,18.67
2019-05-29T20:39:57.310Z,14.70
2019-05-29T20:42:30.111Z,14.40
2019-05-29T20:45:04.455Z,12.70
2019-05-29T20:47:36.127Z,13.33
2019-05-29T20:50:08.958Z,12.87
2019-05-29T20:52:41.346Z,11.63
2019-05-29T20:55:13.682Z,12.60
2019-05-29T20:57:46.397Z,11.33
2019-05-29T21:00:18.709Z,11.53
2019-05-29T21:02:49.725Z,12.53
2019-05-29T21:05:22.344Z,12.53
2019-05-29T21:07:53.410Z,13.77
2019-05-29T21:10:26.282Z,16.43
2019-05-29T21:12:58.938Z,15.70
2019-05-29T21:15:30.050Z,14.03
2019-05-29T21:18:01.090Z,12.63
2019-05-29T21:20:32.209Z,13.37
2019-05-29T21:23:03.343Z,13.60
2019-05-29T21:25:36.824Z,14.63
2019-05-29T21:28:08.086Z,16.93
2019-05-29T21:30:39.469Z,21.20
2019-05-29T21:33:10.691Z,21.40
2019-05-29T21:35:42.224Z,26.33
2019-05-29T21:38:13.281Z,27.20
2019-05-29T21:40:45.206Z,23.83
2019-05-29T21:43:17.068Z,24.17
2019-05-29T21:45:48.306Z,19.43
2019-05-29T21:48:19.398Z,19.20
2019-05-29T21:50:50.444Z,16.47
2019-05-29T21:53:21.508Z,15.90
2019-05-29T21:55:53.403Z,13.47
2019-05-29T21:58:25.992Z,13.43
2019-05-29T22:00:57.473Z,11.73
2019-05-29T22:03:28.735Z,11.70
2019-05-29T22:05:59.940Z,10.87
2019-05-29T22:08:31.047Z,11.27
2019-05-29T22:11:02.316Z,11.17
2019-05-29T22:13:33.475Z,11.57
2019-05-29T22:16:06.044Z,11.30
2019-05-29T22:18:40.326Z,11.30
2019-05-29T22:21:11.414Z,10.20
2019-05-29T22:23:42.850Z,11.53
2019-05-29T22:26:14.906Z,10.77
2019-05-29T22:28:47.583Z,10.40
2019-05-29T22:31:20.137Z,11.30
2019-05-29T22:33:51.519Z,11.07
2019-05-29T22:36:22.724Z,11.17
2019-05-29T22:38:55.517Z,10.10
2019-05-29T22:41:27.435Z,12.27
2019-05-29T22:43:59.765Z,13.23
2019-05-29T22:46:32.595Z,13.57
2019-05-29T22:49:03.658Z,11.83
2019-05-29T22:51:36.324Z,11.10
2019-05-29T22:54:07.361Z,10.20
2019-05-29T22:56:39.324Z,9.37
2019-05-29T22:59:10.394Z,8.23
2019-05-29T23:01:41.477Z,7.90
2019-05-29T23:04:13.983Z,8.27
2019-05-29T23:06:48.062Z,7.77
2019-05-29T23:09:22.424Z,8.00
2019-05-29T23:11:54.156Z,7.27
2019-05-29T23:14:27.947Z,6.47
2019-05-29T23:16:59.040Z,7.10
2019-05-29T23:19:30.080Z,6.47
2019-05-29T23:22:02.870Z,7.27
2019-05-29T23:24:33.952Z,6.63
2019-05-29T23:27:07.342Z,6.73
2019-05-29T23:29:49.044Z,7.87
2019-05-29T23:32:14.084Z,8.23
2019-05-29T23:34:46.624Z,6.90
2019-05-29T23:37:17.694Z,7.80
2019-05-29T23:39:48.762Z,7.80
2019-05-29T23:42:20.656Z,7.10
2019-05-29T23:44:53.938Z,7.60
2019-05-29T23:47:26.816Z,7.90
2019-05-29T23:49:57.881Z,7.20
2019-05-29T23:52:29.051Z,7.20
2019-05-29T23:55:00.090Z,7.73
2019-05-29T23:57:34.974Z,5.97
